createdAt,value
2022-09-06T05:10:50.921Z,14.48
2022-09-06T05:15:53.247Z,14.52
2022-09-06T05:20:55.609Z,14.59
2022-09-06T05:25:57.918Z,14.73
2022-09-06T05:31:12.245Z,14.84
2022-09-06T05:36:14.500Z,14.91
2022-09-06T05:41:16.825Z,15.01
2022-09-06T05:46:19.239Z,14.98
2022-09-06T05:51:21.694Z,14.99
2022-09-06T05:56:24.653Z,15.10
2022-09-06T06:01:29.839Z,15.34
2022-09-06T06:06:33.845Z,15.72
2022-09-06T06:11:36.850Z,15.85
2022-09-06T06:16:39.139Z,15.86
2022-09-06T06:21:41.521Z,16.00
2022-09-06T06:26:44.074Z,16.05
2022-09-06T06:31:46.396Z,16.17
2022-09-06T06:36:48.795Z,16.38
2022-09-06T06:41:51.090Z,16.57
2022-09-06T06:47:02.719Z,16.69
2022-09-06T06:52:05.076Z,17.10
2022-09-06T06:57:09.394Z,17.33
2022-09-06T07:02:12.658Z,17.64
2022-09-06T07:07:32.855Z,17.96
2022-09-06T07:12:36.855Z,18.31
2022-09-06T07:17:39.738Z,18.76
2022-09-06T07:22:42.530Z,19.24
2022-09-06T07:32:52.846Z,20.16
2022-09-06T07:38:00.320Z,20.59
2022-09-06T07:43:02.539Z,21.10
2022-09-06T07:48:04.816Z,21.70
2022-09-06T07:53:10.786Z,22.17
2022-09-06T07:58:17.134Z,21.95
2022-09-06T08:03:19.327Z,21.89
2022-09-06T08:13:44.580Z,23.31
2022-09-06T08:18:57.816Z,24.10
2022-09-06T08:24:04.949Z,23.97
2022-09-06T08:29:08.901Z,23.35
2022-09-06T08:34:15.311Z,24.22
2022-09-06T08:39:17.808Z,27.21
2022-09-06T08:45:02.319Z,32.28
2022-09-06T08:50:05.417Z,40.93
2022-09-06T08:55:10.410Z,44.27
2022-09-06T09:00:14.997Z,45.46
2022-09-06T09:05:30.554Z,41.96
2022-09-06T09:10:45.579Z,36.20
2022-09-06T09:15:47.929Z,33.04
2022-09-06T09:20:50.418Z,32.90
2022-09-06T09:25:55.773Z,32.65
2022-09-06T09:30:58.375Z,33.15
2022-09-06T09:36:12.838Z,31.60
2022-09-06T09:41:31.336Z,33.12
2022-09-06T09:46:35.685Z,34.91
2022-09-06T09:51:57.852Z,37.72
2022-09-06T09:57:00.155Z,38.64
2022-09-06T10:26:38.585Z,34.11
2022-09-06T10:31:45.471Z,32.61
2022-09-06T10:37:03.078Z,34.10
2022-09-06T10:42:25.261Z,34.91
2022-09-06T10:47:35.363Z,36.91
2022-09-06T10:52:44.805Z,34.37
2022-09-06T11:09:18.014Z,29.86
2022-09-06T11:14:24.365Z,28.38
2022-09-06T11:19:39.576Z,28.38
2022-09-06T11:25:14.344Z,27.23
2022-09-06T11:30:18.273Z,27.25
2022-09-06T11:35:32.596Z,27.65
2022-09-06T17:25:06.964Z,21.09
2022-09-06T17:30:09.969Z,20.95
2022-09-06T17:35:12.748Z,20.85
2022-09-06T17:40:15.386Z,20.75
2022-09-06T17:45:18.409Z,20.65
2022-09-06T17:50:20.952Z,20.57
2022-09-06T17:55:23.315Z,20.48
2022-09-06T18:00:26.291Z,20.40
2022-09-06T18:05:28.728Z,20.35
2022-09-06T18:10:36.914Z,20.30
2022-09-06T18:15:40.534Z,20.26
2022-09-06T18:20:42.858Z,20.20
2022-09-06T18:25:56.243Z,20.14
2022-09-06T18:31:00.306Z,20.02
2022-09-06T18:36:04.811Z,19.92
2022-09-06T18:41:08.907Z,19.90
2022-09-06T18:46:13.427Z,19.84
2022-09-06T18:51:16.368Z,19.78
2022-09-06T18:56:20.403Z,19.73
2022-09-06T19:01:22.898Z,19.66
2022-09-06T19:06:26.860Z,19.60
2022-09-06T19:11:29.521Z,19.55
2022-09-06T19:16:32.375Z,19.48
2022-09-06T19:21:40.797Z,19.44
2022-09-06T19:26:46.520Z,19.39
2022-09-06T19:31:49.496Z,19.33
2022-09-06T19:36:55.248Z,19.29
2022-09-06T19:41:58.032Z,19.25
